Gillette, WY (82718)

7:57 PM MDT on August 30, 2014 (GMT -0600)
South Gillette, Swanson Road | Change Station
CLOSE
Current Station
Personal Weather Station
Location: Gillette, WY
Elevation: 4580 ft
Nearby Weather Stations

Elev 4580 ft 44.24 °N, 105.48 °W | Updated 6 seconds ago

Partly Cloudy
Partly Cloudy
61.3 °F
Feels Like 61.3 °F
N
13.0
Wind Variable Wind from NW
Gusts 17.4 mph

Today
High -- | Low -- °F
--% Chance of Precip.
Yesterday
High -- | Low -- °F
Precip. -- in
6:22 AM 7:41 PM
Waxing Crescent, 26% visible
Pressure 29.83 in
Visibility 10.0 miles
Clouds Few 6500 ft
Mostly Cloudy 8500 ft
Mostly Cloudy 11000 ft
Dew Point 50 °F
Humidity 66%
Rainfall 0.02 in
Snow Depth Not available.
UV 0 out of 12
Pollen 8.50 out of 12
Air Quality Not available.
Flu Activity Not available.
SPECI KGCC 310145Z AUTO 32021G30KT 10SM VCTS -RA FEW065 BKN085 BKN110 16/10 A2983 RMK AO2 PK WND 32034/0059 LTG DSNT N AND S AND NW RAB35 P0000 T01560100

More Conditions Fewer Conditions

Pressure 29.83 in
Visibility 10.0 miles
Clouds Few 6500 ft
Mostly Cloudy 8500 ft
Mostly Cloudy 11000 ft
Dew Point 50 °F
Humidity 66%
Rainfall 0.02 in
Snow Depth Not available.
UV 0 out of 12
Pollen 8.50 out of 12
Air Quality Not available.
Flu Activity Not available.
SPECI KGCC 310145Z AUTO 32021G30KT 10SM VCTS -RA FEW065 BKN085 BKN110 16/10 A2983 RMK AO2 PK WND 32034/0059 LTG DSNT N AND S AND NW RAB35 P0000 T01560100

More Conditions Fewer Conditions

10-Day Weather Forecast

Almanac

Astronomy

Aug. 30, 2014 Rise Set
Actual Time 6:22 AM MDT 7:41 PM MDT
Civil Twilight 5:52 AM MDT 8:11 PM MDT
Nautical Twilight 5:16 AM MDT 8:47 PM MDT
Astronomical Twilight 4:37 AM MDT 9:25 PM MDT
Moon 11:24 AM MDT (8/30) 10:04 PM MDT (8/30)
Length of Visible Light 14h 19m
Length of Day
13h 19m
Tomorrow will be 2m 55s shorter.
Waxing Crescent, 26% of the Moon is Illuminated
Today
Waxing Crescent
Sep 2
First Quarter
Sep 8
Full
Sep 15
Last Quarter
Sep 24
New

Today's Extremes

State Highs State Lows

Community

WunderPhotos

Upload Photos

1,748,720 photos uploaded!

Nearby

Snow Depth

Station Depth Elevation
Casper Mountain 0 in 7850 ft
Reno Hill 0 in 8500 ft
Sand Lake 0 in 10050 ft
Brooklyn Lake 0 in 10220 ft
South Brush Creek 0 in 8440 ft

Earthquake Activity

City Distance Mag. Time & Date
No recent earthquake activity has been reported nearby.
Minimum magnitude displayed is 2.5.

Coastal Water Temperatures

Place Temperature
No Stations Reporting

Nearby Weather Stations